Time;durP1;ratioP1;P1;durP2;ratioP2;P2;SDS_P1;SDS_P2;PMS_P1;PMS_P2;Temp;Humidity;BMP_temperature;BMP_pressure;BME280_temperature;BME280_humidity;BME280_pressure;Samples;Min_cycle;Max_cycle;Signal;HPM_P1;HPM_P2
2022/04/15 00:00:47;;;;;;;84.18;36.67;;;;;;;-144.47;75.60;53408.28;5054594;28;20563;-92
2022/04/15 00:03:23;;;;;;;79.82;36.25;;;;;;;-144.47;75.05;53430.13;5055871;28;20033;-92
2022/04/15 00:05:55;;;;;;;73.63;34.67;;;;;;;-144.47;75.19;53402.31;5077198;28;20082;-90
2022/04/15 00:08:27;;;;;;;73.80;34.90;;;;;;;-144.47;74.72;53394.38;5075015;28;20078;-92
2022/04/15 00:10:57;;;;;;;76.63;34.60;;;;;;;-144.47;74.60;53394.38;5059844;28;20080;-91
2022/04/15 00:13:29;;;;;;;78.47;36.50;;;;;;;-144.47;74.38;53412.25;5048816;28;20036;-92
2022/04/15 00:15:59;;;;;;;72.78;36.17;;;;;;;-144.47;74.23;53418.22;5062437;28;20025;-90
2022/04/15 00:18:34;;;;;;;70.13;35.03;;;;;;;-144.47;74.04;53400.34;5042175;28;20139;-88
2022/04/15 00:21:03;;;;;;;74.05;35.10;;;;;;;-144.47;74.08;53406.31;5057562;28;20028;-90
2022/04/15 00:23:32;;;;;;;71.15;35.63;;;;;;;-144.47;74.06;53390.41;5046902;28;20037;-91
2022/04/15 00:26:06;;;;;;;66.43;33.75;;;;;;;-144.47;73.73;53404.31;5048649;28;20181;-92
2022/04/15 00:28:36;;;;;;;74.88;36.08;;;;;;;-144.47;73.97;53418.22;5057890;28;20148;-92
2022/04/15 00:31:04;;;;;;;76.32;32.95;;;;;;;-144.47;73.77;53434.09;5031751;28;20032;-92
2022/04/15 00:33:53;;;;;;;70.70;33.13;;;;;;;-144.47;73.93;53400.34;5056841;28;20033;-92
2022/04/15 00:36:26;;;;;;;75.45;34.72;;;;;;;-144.47;73.90;53440.06;5074051;28;20102;-90
2022/04/15 00:39:03;;;;;;;74.32;35.40;;;;;;;-144.47;74.28;53412.25;5062076;28;20090;-90
2022/04/15 00:41:34;;;;;;;65.38;33.90;;;;;;;-144.47;74.29;53400.34;5063148;28;20071;-90
2022/04/15 00:44:14;;;;;;;76.85;35.30;;;;;;;-144.47;74.43;53422.19;5045431;28;20044;-91
2022/04/15 00:46:42;;;;;;;71.43;34.35;;;;;;;-144.47;74.52;53424.19;5056870;28;20092;-91
2022/04/15 00:49:54;;;;;;;78.07;35.20;;;;;;;-144.47;74.44;53408.28;5047914;28;20025;-91
2022/04/15 00:52:32;;;;;;;69.43;32.70;;;;;;;-144.47;74.58;53416.22;5054301;28;20381;-90
2022/04/15 00:54:59;;;;;;;76.20;35.47;;;;;;;-144.47;74.71;53386.44;5063914;28;20028;-91
2022/04/15 00:57:26;;;;;;;77.65;32.97;;;;;;;-144.47;74.69;53376.50;5034782;28;20099;-89
2022/04/15 01:00:00;;;;;;;75.43;33.80;;;;;;;-144.47;74.75;53438.09;5038005;28;20044;-89
2022/04/15 01:02:27;;;;;;;75.78;35.90;;;;;;;-144.47;74.74;53398.34;5056800;28;20392;-89
2022/04/15 01:05:01;;;;;;;77.78;35.30;;;;;;;-144.47;75.03;53404.31;5057961;28;20082;-88
2022/04/15 01:07:29;;;;;;;69.18;34.67;;;;;;;-144.47;75.23;53430.13;5074001;28;20440;-89
2022/04/15 01:09:58;;;;;;;79.72;36.22;;;;;;;-144.47;75.19;53428.16;5062590;28;20043;-90
2022/04/15 01:12:31;;;;;;;78.82;36.30;;;;;;;-144.47;74.95;53434.09;5078419;28;20056;-89
2022/04/15 01:15:02;;;;;;;80.13;35.67;;;;;;;-144.47;75.13;53404.31;5061063;28;20041;-89
2022/04/15 01:17:35;;;;;;;78.72;35.20;;;;;;;-144.47;75.28;53406.31;5078231;28;20512;-89
2022/04/15 01:20:12;;;;;;;84.70;36.15;;;;;;;-144.47;75.17;53396.38;5079462;28;20044;-90
2022/04/15 01:22:42;;;;;;;74.95;35.53;;;;;;;-144.47;75.54;53414.25;5087457;28;20430;-89
2022/04/15 01:25:19;;;;;;;82.20;36.42;;;;;;;-144.47;75.56;53414.25;5085072;28;20020;-90
2022/04/15 01:27:49;;;;;;;74.93;35.58;;;;;;;-144.47;75.85;53408.28;5077411;28;20020;-90
2022/04/15 01:30:23;;;;;;;77.30;35.50;;;;;;;-144.47;75.80;53384.44;5066874;28;20120;-89
2022/04/15 01:32:52;;;;;;;83.45;36.03;;;;;;;-144.47;76.14;53398.34;5076166;28;20114;-88
2022/04/15 01:35:22;;;;;;;75.35;34.92;;;;;;;-144.47;76.28;53414.25;5061006;28;20035;-89
2022/04/15 01:38:02;;;;;;;;;;;;;;;;;;;;;
2022/04/15 01:40:30;;;;;;;89.43;38.88;;;;;;;-144.47;76.93;53457.94;5054214;28;20059;-89
2022/04/15 01:43:00;;;;;;;77.53;35.63;;;;;;;-144.47;77.19;53461.91;5054452;28;20427;-90
2022/04/15 01:45:29;;;;;;;83.93;36.45;;;;;;;-144.47;77.52;53408.28;5052833;28;20380;-89
2022/04/15 01:47:54;;;;;;;75.00;35.23;;;;;;;-144.47;77.57;53392.41;5062448;28;20063;-89
2022/04/15 01:50:20;;;;;;;87.28;37.70;;;;;;;-144.47;78.12;53436.09;5056401;28;20277;-89
2022/04/15 01:53:08;;;;;;;80.15;36.70;;;;;;;-144.47;78.11;53384.44;5056614;28;20129;-91
2022/04/15 01:55:36;;;;;;;86.47;37.30;;;;;;;-144.47;78.15;53436.09;5075132;28;20041;-90
2022/04/15 01:58:09;;;;;;;92.23;35.37;;;;;;;-144.47;78.17;53400.34;5057811;28;20352;-89
2022/04/15 02:00:38;;;;;;;89.85;37.85;;;;;;;-144.47;78.24;53374.50;5057203;28;20051;-89
2022/04/15 02:03:07;;;;;;;84.85;38.08;;;;;;;-144.47;78.29;53410.28;5066125;28;20101;-88
2022/04/15 02:05:32;;;;;;;81.70;35.38;;;;;;;-144.47;78.41;53422.19;5074430;28;20047;-90
2022/04/15 02:08:00;;;;;;;82.00;37.17;;;;;;;-144.47;78.17;53398.34;5051641;28;20123;-91
2022/04/15 02:10:30;;;;;;;73.53;35.08;;;;;;;-144.47;77.78;53424.19;5073057;28;20050;-88
2022/04/15 02:13:04;;;;;;;85.35;37.55;;;;;;;-144.47;77.78;53432.13;5079424;28;20017;-90
2022/04/15 02:15:35;;;;;;;76.57;36.60;;;;;;;-144.47;77.30;53412.25;5056483;28;20447;-89
2022/04/15 02:18:07;;;;;;;75.03;35.17;;;;;;;-144.47;77.29;53424.19;5072230;28;20089;-89
2022/04/15 02:20:40;;;;;;;80.70;36.47;;;;;;;-144.47;77.32;53418.22;5051709;28;20171;-90
2022/04/15 02:23:15;;;;;;;;;;;;;;;;;;;;;
2022/04/15 02:25:52;;;;;;;80.78;36.92;;;;;;;-144.47;77.05;53416.22;5078974;28;20120;-90
2022/04/15 02:28:45;;;;;;;74.53;37.22;;;;;;;-144.47;76.45;53416.22;5062743;28;20044;-88
2022/04/15 02:31:18;;;;;;;82.93;36.78;;;;;;;-144.47;76.28;53416.22;5061133;28;20036;-91
2022/04/15 02:33:51;;;;;;;73.70;35.33;;;;;;;-144.47;76.16;53426.16;5066372;28;20069;-91
2022/04/15 02:36:16;;;;;;;69.28;34.47;;;;;;;-144.47;75.71;53402.31;5079196;22;20035;-69
2022/04/15 02:38:42;;;;;;;78.85;37.42;;;;;;;-144.47;75.75;53424.19;5049597;28;20041;-68
2022/04/15 02:41:08;;;;;;;75.30;36.17;;;;;;;-144.47;75.71;53420.22;5053121;28;20465;-68
2022/04/15 02:43:33;;;;;;;82.35;38.80;;;;;;;-144.47;75.32;53410.28;5049192;28;20071;-66
2022/04/15 02:46:00;;;;;;;89.28;37.95;;;;;;;-144.47;75.11;53434.09;5047077;28;20471;-67
2022/04/15 02:48:26;;;;;;;71.70;34.35;;;;;;;-144.47;74.74;53420.22;5054585;28;20013;-70
2022/04/15 02:50:51;;;;;;;76.45;35.47;;;;;;;-144.47;74.97;53453.97;5049961;28;20481;-67
2022/04/15 02:53:17;;;;;;;78.07;35.47;;;;;;;-144.47;75.04;53414.25;5050997;28;20021;-69
2022/04/15 02:55:42;;;;;;;85.78;37.03;;;;;;;-144.47;74.75;53436.09;5055917;28;20498;-66
2022/04/15 02:58:08;;;;;;;82.55;37.80;;;;;;;-144.47;74.54;53430.13;5048167;28;20069;-68
2022/04/15 03:00:33;;;;;;;77.35;37.70;;;;;;;-144.47;74.41;53434.09;5043870;28;20073;-68
2022/04/15 03:02:58;;;;;;;77.32;38.50;;;;;;;-144.47;74.18;53436.09;5052568;28;20155;-69
2022/04/15 03:05:23;;;;;;;78.72;38.38;;;;;;;-144.47;73.92;53420.22;5043563;28;20041;-68
2022/04/15 03:07:49;;;;;;;72.43;36.72;;;;;;;-144.47;73.96;53404.31;5051463;28;20632;-67
2022/04/15 03:10:14;;;;;;;75.15;37.60;;;;;;;-144.47;73.89;53430.13;5059787;28;20027;-71
2022/04/15 03:12:39;;;;;;;71.25;36.33;;;;;;;-144.47;74.10;53440.06;5049223;28;20025;-65
2022/04/15 03:15:06;;;;;;;75.53;36.97;;;;;;;-144.47;74.02;53406.31;5055119;28;20021;-70
2022/04/15 03:17:33;;;;;;;70.60;34.92;;;;;;;-144.47;73.95;53386.44;5052080;28;20098;-66
2022/04/15 03:20:02;;;;;;;76.95;36.80;;;;;;;-144.47;74.14;53404.31;5053212;28;20029;-68
2022/04/15 03:22:28;;;;;;;71.13;35.25;;;;;;;-144.47;74.27;53448.00;5044462;28;20045;-68
2022/04/15 03:24:53;;;;;;;71.20;37.70;;;;;;;-144.47;74.40;53406.31;5057316;28;20036;-68
2022/04/15 03:27:19;;;;;;;68.70;37.08;;;;;;;-144.47;74.53;53420.22;5058015;28;20041;-68
2022/04/15 03:29:44;;;;;;;70.38;36.55;;;;;;;-144.47;74.43;53414.25;5048252;28;20120;-68
2022/04/15 03:32:10;;;;;;;80.70;35.92;;;;;;;-144.47;74.73;53420.22;5057059;28;20039;-64
2022/04/15 03:34:36;;;;;;;68.53;35.42;;;;;;;-144.47;74.79;53434.09;5054591;28;20119;-72
2022/04/15 03:37:05;;;;;;;68.50;32.63;;;;;;;-144.47;74.37;53430.13;5053828;28;20187;-67
2022/04/15 03:39:31;;;;;;;67.80;34.67;;;;;;;-144.47;74.41;53404.31;5050144;28;20454;-71
2022/04/15 03:41:56;;;;;;;64.78;33.70;;;;;;;-144.47;74.35;53416.22;5049961;28;20032;-68
2022/04/15 03:44:22;;;;;;;69.28;35.30;;;;;;;-144.47;74.44;53432.13;5042251;28;20135;-67
2022/04/15 03:46:47;;;;;;;63.97;33.58;;;;;;;-144.47;74.04;53412.25;5054024;28;20052;-69
2022/04/15 03:49:12;;;;;;;63.60;33.83;;;;;;;-144.47;74.09;53408.28;5058744;28;20407;-67
2022/04/15 03:51:38;;;;;;;64.80;32.08;;;;;;;-144.47;73.46;53448.00;5043032;28;20025;-69
2022/04/15 03:54:03;;;;;;;57.38;32.25;;;;;;;-144.47;73.21;53404.31;5058723;28;20086;-68
2022/04/15 03:56:29;;;;;;;59.92;31.55;;;;;;;-144.47;73.05;53424.19;5056321;28;20475;-67
2022/04/15 03:58:54;;;;;;;54.60;29.38;;;;;;;-144.47;72.54;53424.19;5058540;28;20405;-69
2022/04/15 04:01:19;;;;;;;62.67;28.63;;;;;;;-144.47;72.40;53420.22;5056684;28;20112;-68
2022/04/15 04:03:45;;;;;;;61.92;31.73;;;;;;;-144.47;72.38;53406.31;5062176;28;20082;-71
2022/04/15 04:06:10;;;;;;;60.38;30.77;;;;;;;-144.47;72.51;53418.22;5055144;28;20037;-68
2022/04/15 04:08:36;;;;;;;55.35;30.67;;;;;;;-144.47;72.45;53428.16;5061554;28;20039;-69
2022/04/15 04:11:02;;;;;;;53.83;29.40;;;;;;;-144.47;72.38;53400.34;5051833;28;20056;-69
2022/04/15 04:13:27;;;;;;;58.33;30.48;;;;;;;-144.47;72.06;53408.28;5040157;28;20520;-67
2022/04/15 04:15:52;;;;;;;50.42;28.65;;;;;;;-144.47;72.08;53422.19;5044908;28;20025;-68
2022/04/15 04:18:20;;;;;;;56.63;29.73;;;;;;;-144.47;71.91;53430.13;5055754;28;20114;-64
2022/04/15 04:20:46;;;;;;;61.00;29.65;;;;;;;-144.47;72.15;53416.22;5042864;28;20063;-68
2022/04/15 04:23:11;;;;;;;53.33;28.80;;;;;;;-144.47;72.23;53428.16;5054864;28;20060;-70
2022/04/15 04:25:37;;;;;;;58.80;28.95;;;;;;;-144.47;72.30;53390.41;5054860;28;20095;-68
2022/04/15 04:28:02;;;;;;;55.80;29.92;;;;;;;-144.47;72.50;53420.22;5058079;28;20547;-69
2022/04/15 04:30:27;;;;;;;52.75;27.70;;;;;;;-144.47;72.11;53414.25;5050517;28;20031;-66
2022/04/15 04:32:53;;;;;;;51.85;27.42;;;;;;;-144.47;72.02;53448.00;5046716;28;20108;-68
2022/04/15 04:35:20;;;;;;;59.80;27.08;;;;;;;-144.47;72.20;53408.28;5055049;28;20036;-67
2022/04/15 04:37:46;;;;;;;56.10;28.40;;;;;;;-144.47;72.16;53424.19;5046070;28;20124;-69
2022/04/15 04:40:12;;;;;;;57.38;30.40;;;;;;;-144.47;72.63;53422.19;5052846;28;20100;-66
2022/04/15 04:42:38;;;;;;;56.72;27.92;;;;;;;-144.47;72.31;53444.03;5052463;28;20048;-67
2022/04/15 04:45:04;;;;;;;53.88;27.05;;;;;;;-144.47;72.26;53426.16;5054739;28;20041;-70
2022/04/15 04:47:30;;;;;;;56.90;27.27;;;;;;;-144.47;72.30;53416.22;5043428;28;20135;-64
2022/04/15 04:49:56;;;;;;;53.22;26.10;;;;;;;-144.47;72.36;53428.16;5050516;28;20202;-69
2022/04/15 04:52:24;;;;;;;54.75;25.20;;;;;;;-144.47;72.02;53402.31;5053202;28;20203;-66
2022/04/15 04:54:51;;;;;;;51.53;24.17;;;;;;;-144.47;71.74;53434.09;5050840;28;20152;-67
2022/04/15 04:57:16;;;;;;;42.08;21.85;;;;;;;-144.47;70.80;53440.06;5053696;28;20439;-71
2022/04/15 04:59:41;;;;;;;49.17;23.17;;;;;;;-144.47;70.98;53396.38;5072288;23;20056;-89
2022/04/15 05:06:00;;;;;;;45.20;22.30;;;;;;;-144.47;70.57;53448.00;4987921;28;20088;-90
2022/04/15 05:08:28;;;;;;;46.65;20.63;;;;;;;-144.47;70.46;53416.22;4989421;28;20286;-88
2022/04/15 05:10:56;;;;;;;44.08;20.55;;;;;;;-144.47;70.44;53412.25;4966120;28;20108;-88
2022/04/15 05:13:25;;;;;;;39.55;18.77;;;;;;;-144.47;69.76;53444.03;4967151;28;20081;-89
2022/04/15 05:15:58;;;;;;;36.95;19.77;;;;;;;-144.47;70.24;53444.03;4992253;28;20041;-89
2022/04/15 05:18:25;;;;;;;33.20;20.60;;;;;;;-144.47;70.54;53430.13;4974366;28;20414;-89
2022/04/15 05:21:11;;;;;;;38.67;19.92;;;;;;;-144.47;70.58;53428.16;4991721;28;20044;-88
2022/04/15 05:23:40;;;;;;;36.50;18.13;;;;;;;-144.47;70.76;53402.31;4981119;28;20086;-89
2022/04/15 05:26:16;;;;;;;34.58;18.63;;;;;;;-144.47;70.06;53418.22;4984841;28;20038;-88
2022/04/15 05:29:08;;;;;;;;;;;;;;;;;;;;;
2022/04/15 05:31:42;;;;;;;40.55;18.25;;;;;;;-144.47;70.45;53434.09;4985151;28;20133;-89
2022/04/15 05:34:08;;;;;;;38.42;17.55;;;;;;;-144.47;70.09;53467.88;4969542;28;20098;-89
2022/04/15 05:36:37;;;;;;;40.65;18.02;;;;;;;-144.47;69.76;53410.28;4987462;28;20018;-89
2022/04/15 05:39:08;;;;;;;35.28;17.63;;;;;;;-144.47;69.87;53432.13;4975726;28;20042;-89
2022/04/15 05:41:34;;;;;;;35.03;17.30;;;;;;;-144.47;70.14;53404.31;4982150;28;20032;-88
2022/04/15 05:44:12;;;;;;;37.80;18.98;;;;;;;-144.47;70.23;53424.19;5033139;28;20549;-89
2022/04/15 05:46:56;;;;;;;50.97;17.92;;;;;;;-144.47;70.55;53424.19;5055837;28;20702;-88
2022/04/15 05:49:24;;;;;;;41.55;17.75;;;;;;;-144.47;70.15;53412.25;5052788;28;20029;-89
2022/04/15 05:51:50;;;;;;;41.78;18.35;;;;;;;-144.47;69.94;53430.13;5045039;28;20029;-88
2022/04/15 05:54:20;;;;;;;40.17;17.48;;;;;;;-144.47;70.29;53436.09;5052674;28;20118;-89
2022/04/15 05:56:57;;;;;;;36.70;17.67;;;;;;;-144.47;70.32;53440.06;5042827;28;20033;-89
2022/04/15 05:59:24;;;;;;;36.55;16.85;;;;;;;-144.47;70.01;53432.13;5042176;28;20044;-88
2022/04/15 06:01:56;;;;;;;36.33;18.33;;;;;;;-144.47;70.38;53422.19;5042823;28;20025;-89
2022/04/15 06:04:25;;;;;;;37.45;17.13;;;;;;;-144.47;69.54;53446.03;5057508;28;20052;-89
2022/04/15 06:10:12;;;;;;;37.67;16.35;;;;;;;-144.47;68.77;53444.03;5084638;28;20063;-87
2022/04/15 06:15:52;;;;;;;36.42;16.88;;;;;;;-144.47;67.99;53420.22;5045571;28;20183;-86
2022/04/15 06:18:24;;;;;;;34.65;14.90;;;;;;;-144.47;67.40;53410.28;5057486;28;20033;-87
2022/04/15 06:21:02;;;;;;;36.42;15.25;;;;;;;-144.47;67.65;53408.28;5072786;28;20101;-87
2022/04/15 06:23:40;;;;;;;31.05;14.00;;;;;;;-144.47;66.27;53420.22;5076135;28;20142;-87
2022/04/15 06:26:10;;;;;;;22.45;10.85;;;;;;;-144.47;66.74;53442.06;5022664;28;20268;-88
2022/04/15 06:28:38;;;;;;;22.10;11.55;;;;;;;-144.47;65.89;53410.28;5054952;28;20060;-87
2022/04/15 06:31:04;;;;;;;23.08;10.60;;;;;;;-144.47;65.23;53416.22;5080887;28;20071;-87
2022/04/15 06:34:03;;;;;;;;;;;;;;;;;;;;;
2022/04/15 06:36:43;;;;;;;26.05;11.93;;;;;;;-144.47;65.20;53436.09;5093126;28;20634;-88
2022/04/15 06:39:11;;;;;;;23.70;11.77;;;;;;;-144.47;64.54;53408.28;5077283;28;20037;-87
2022/04/15 06:41:37;;;;;;;21.13;10.02;;;;;;;-144.47;63.55;53416.22;5061115;28;20074;-88
2022/04/15 06:44:06;;;;;;;23.17;10.35;;;;;;;-144.47;63.53;53394.38;5070369;28;20113;-88
2022/04/15 06:46:40;;;;;;;21.98;9.40;;;;;;;-144.47;62.57;53408.28;5064384;28;20032;-87
2022/04/15 06:49:08;;;;;;;25.17;9.77;;;;;;;-144.47;62.93;53396.38;5072654;28;20088;-86
2022/04/15 06:51:39;;;;;;;20.17;8.38;;;;;;;-144.47;62.38;53432.13;5089191;28;20025;-87
2022/04/15 06:54:05;;;;;;;15.73;8.10;;;;;;;-144.47;62.32;53408.28;5087269;28;20032;-87
2022/04/15 06:56:37;;;;;;;22.20;10.52;;;;;;;-144.47;62.69;53434.09;5063426;28;20077;-88
2022/04/15 06:59:13;;;;;;;21.15;8.98;;;;;;;-144.47;62.53;53436.09;5059988;28;20064;-88
2022/04/15 07:01:51;;;;;;;21.63;9.27;;;;;;;-144.47;62.04;53404.31;5060821;28;20037;-89
2022/04/15 07:04:20;;;;;;;18.02;8.32;;;;;;;-144.47;62.34;53410.28;5053553;28;20071;-86
2022/04/15 07:07:23;;;;;;;19.63;8.50;;;;;;;-144.47;62.11;53422.19;5068006;28;20036;-90
2022/04/15 07:09:51;;;;;;;17.85;8.55;;;;;;;-144.47;62.41;53396.38;5090846;28;20028;-88
2022/04/15 07:12:24;;;;;;;16.90;8.60;;;;;;;-144.47;62.01;53386.44;5065347;28;20039;-88
2022/04/15 07:14:59;;;;;;;14.60;7.88;;;;;;;-144.47;61.52;53400.34;5073881;28;20041;-88
2022/04/15 07:17:24;;;;;;;20.33;7.88;;;;;;;-144.47;61.42;53416.22;5085476;28;20029;-89
2022/04/15 07:19:53;;;;;;;14.05;6.22;;;;;;;-144.47;60.62;53416.22;5075371;28;20211;-89
2022/04/15 07:22:25;;;;;;;19.17;6.27;;;;;;;-144.47;60.14;53404.31;5093253;28;20088;-87
2022/04/15 07:24:51;;;;;;;13.60;6.13;;;;;;;-144.47;59.76;53410.28;5074841;28;20024;-83
2022/04/15 07:27:21;;;;;;;14.38;5.95;;;;;;;-144.47;59.52;53380.47;5064005;28;20051;-87
2022/04/15 07:29:47;;;;;;;10.90;5.38;;;;;;;-144.47;59.58;53364.59;5080673;28;20078;-88
2022/04/15 07:32:19;;;;;;;13.95;5.68;;;;;;;-144.47;59.74;53392.41;5073297;28;20119;-86
2022/04/15 07:34:55;;;;;;;13.65;5.60;;;;;;;-144.47;59.18;53416.22;5066508;28;20108;-88
2022/04/15 07:37:22;;;;;;;9.55;4.47;;;;;;;-144.47;58.36;53386.44;5072207;28;20091;-87
2022/04/15 07:39:49;;;;;;;7.43;4.05;;;;;;;-144.47;58.71;53382.47;5074543;28;20036;-89
2022/04/15 07:42:17;;;;;;;10.43;3.97;;;;;;;-144.47;58.48;53424.19;5058173;28;20051;-88
2022/04/15 07:44:55;;;;;;;10.68;4.70;;;;;;;-144.47;58.93;53410.28;5073491;28;20041;-88
2022/04/15 07:47:30;;;;;;;;;;;;;;;;;;;;;
2022/04/15 07:49:56;;;;;;;10.50;4.53;;;;;;;-144.47;59.38;53398.34;5070446;28;20095;-88
2022/04/15 07:52:22;;;;;;;8.75;4.78;;;;;;;-144.47;59.87;53436.09;5052925;28;20492;-87
2022/04/15 07:55:03;;;;;;;10.10;4.55;;;;;;;-144.47;59.55;53418.22;5070974;28;20085;-88
2022/04/15 07:57:31;;;;;;;11.25;4.88;;;;;;;-144.47;59.52;53396.38;5060960;28;20052;-88
2022/04/15 07:59:59;;;;;;;11.15;4.88;;;;;;;-144.47;59.40;53386.44;5087521;28;20059;-86
2022/04/15 08:02:25;;;;;;;13.30;4.65;;;;;;;-144.47;59.36;53426.16;5080724;28;20032;-88
2022/04/15 08:04:51;;;;;;;9.45;4.07;;;;;;;-144.47;59.28;53404.31;5088523;28;20051;-88
2022/04/15 08:07:22;;;;;;;10.30;4.22;;;;;;;-144.47;59.37;53430.13;5063740;28;20472;-89
2022/04/15 08:10:23;;;;;;;13.18;5.38;;;;;;;-144.47;58.88;53412.25;5080274;28;20377;-89
2022/04/15 08:12:49;;;;;;;8.15;4.10;;;;;;;-144.47;58.74;53414.25;5034914;28;20130;-88
2022/04/15 08:15:27;;;;;;;10.93;5.10;;;;;;;-144.47;59.40;53408.28;5063579;28;20463;-89
2022/04/15 08:17:59;;;;;;;9.77;4.35;;;;;;;-144.47;59.37;53418.22;5061089;28;20093;-87
2022/04/15 08:21:14;;;;;;;13.38;5.15;;;;;;;-144.47;59.72;53424.19;5058169;28;20144;-86
2022/04/15 08:24:44;;;;;;;;;;;;;;;;;;;;;
2022/04/15 08:27:41;;;;;;;14.23;5.50;;;;;;;-144.47;60.62;53420.22;5043288;28;20119;-87
2022/04/15 08:33:37;;;;;;;8.80;4.45;;;;;;;-144.47;60.35;53418.22;5073261;28;20040;-87
2022/04/15 08:36:21;;;;;;;12.65;4.68;;;;;;;-144.47;59.69;53386.44;5036808;28;20041;-86
2022/04/15 08:38:46;;;;;;;12.30;5.68;;;;;;;-144.47;60.49;53386.44;5027733;28;20408;-85
2022/04/15 08:41:29;;;;;;;12.73;5.85;;;;;;;-144.47;61.17;53404.31;5045313;28;20083;-87
2022/04/15 08:44:25;;;;;;;12.27;4.63;;;;;;;-144.47;61.21;53418.22;5038867;28;20044;-88
2022/04/15 08:47:00;;;;;;;10.55;4.47;;;;;;;-144.47;60.34;53404.31;5036756;28;20060;-86
2022/04/15 08:49:35;;;;;;;13.38;5.22;;;;;;;-144.47;59.90;53364.59;5058714;28;20040;-85
2022/04/15 08:52:39;;;;;;;;;;;;;;;;;;;;;
2022/04/15 08:55:30;;;;;;;9.35;3.97;;;;;;;-144.47;60.17;53408.28;5062711;28;20072;-87
2022/04/15 08:58:05;;;;;;;10.38;3.80;;;;;;;-144.47;58.38;53362.59;5055163;28;20036;-87
2022/04/15 09:00:44;;;;;;;5.70;2.88;;;;;;;-144.47;58.07;53416.22;5030472;28;20045;-88
2022/04/15 09:03:25;;;;;;;8.65;3.20;;;;;;;-144.47;57.71;53402.31;5041936;28;20048;-89
2022/04/15 09:05:54;;;;;;;5.60;2.65;;;;;;;-144.47;58.25;53372.53;5035850;28;20025;-87
2022/04/15 09:08:24;;;;;;;5.80;2.90;;;;;;;-144.47;58.03;53400.34;5030477;28;20081;-89
2022/04/15 09:11:05;;;;;;;10.50;3.08;;;;;;;-144.47;58.01;53384.44;5070942;28;20035;-87
2022/04/15 09:14:02;;;;;;;8.13;3.25;;;;;;;-144.47;57.44;53372.53;5073603;28;20368;-88
2022/04/15 09:16:38;;;;;;;7.22;3.17;;;;;;;-144.47;57.61;53408.28;5056855;28;20045;-87
2022/04/15 09:19:13;;;;;;;8.60;3.38;;;;;;;-144.47;57.17;53396.38;5031373;28;20037;-86
2022/04/15 09:22:17;;;;;;;7.68;3.17;;;;;;;-144.47;56.64;53408.28;5049713;28;20024;-87
2022/04/15 09:25:06;;;;;;;;;;;;;;;;;;;;;
2022/04/15 09:27:41;;;;;;;6.85;3.17;;;;;;;-144.47;55.85;53418.22;4993121;28;20108;-89
2022/04/15 09:30:09;;;;;;;9.18;3.85;;;;;;;-144.47;56.07;53372.53;5043001;28;20037;-86
2022/04/15 09:32:44;;;;;;;6.57;3.53;;;;;;;-144.47;55.54;53390.41;5057046;28;20036;-89
2022/04/15 09:35:52;;;;;;;6.70;3.15;;;;;;;-144.47;56.27;53390.41;5050387;28;20126;-90
2022/04/15 09:41:38;;;;;;;7.38;3.72;;;;;;;-144.47;55.05;53398.34;4987156;28;20385;-90
2022/04/15 09:44:13;;;;;;;7.53;3.85;;;;;;;-144.47;55.53;53432.13;4988856;28;20061;-88
2022/04/15 09:46:44;;;;;;;8.35;3.95;;;;;;;-144.47;55.37;53380.47;5012944;28;20038;-89
2022/04/15 09:49:14;;;;;;;6.60;3.55;;;;;;;-144.47;54.53;53400.34;4996179;28;20520;-89
2022/04/15 09:51:45;;;;;;;6.35;2.65;;;;;;;-144.47;52.09;53356.63;4997684;28;20033;-89
2022/04/15 09:54:23;;;;;;;7.45;2.22;;;;;;;-144.47;51.94;53424.19;4999094;28;20529;-90
2022/04/15 09:57:13;;;;;;;;;;;;;;;-144.47;51.40;53380.47;4997671;28;20533;-91
2022/04/15 09:59:44;;;;;;;6.38;2.30;;;;;;;-144.47;52.11;53408.28;4983938;28;19926;-90
2022/04/15 10:02:33;;;;;;;4.75;2.38;;;;;;;-144.47;52.16;53382.47;5017518;28;20122;-90
2022/04/15 10:05:25;;;;;;;5.25;2.38;;;;;;;-144.47;52.10;53406.31;5015165;28;20038;-91
2022/04/15 10:07:51;;;;;;;6.35;2.33;;;;;;;-144.47;52.28;53370.53;4944234;28;20039;-92
2022/04/15 10:10:23;;;;;;;7.07;3.08;;;;;;;-144.47;52.85;53406.31;4965534;29;20077;-91
2022/04/15 10:12:49;;;;;;;5.72;3.00;;;;;;;-144.47;52.96;53370.53;4968203;28;20055;-91
2022/04/15 10:15:38;;;;;;;6.63;3.35;;;;;;;-144.47;53.15;53358.63;4985846;28;20038;-92
2022/04/15 10:18:08;;;;;;;7.72;3.13;;;;;;;-144.47;53.36;53404.31;4971410;28;20171;-91
2022/04/15 10:20:39;;;;;;;6.55;3.22;;;;;;;-144.47;54.40;53392.41;4963825;28;20373;-92
2022/04/15 10:23:15;;;;;;;14.40;3.97;;;;;;;-144.47;54.55;53344.72;4961785;28;20027;-91
2022/04/15 10:25:48;;;;;;;6.65;3.78;;;;;;;-144.47;54.70;53398.34;4946740;28;20087;-90
2022/04/15 10:28:23;;;;;;;6.72;3.42;;;;;;;-144.47;54.34;53402.31;4977714;28;20136;-92
2022/04/15 10:31:16;;;;;;;8.02;3.58;;;;;;;-144.47;54.19;53366.56;4989111;28;20042;-91
2022/04/15 10:33:49;;;;;;;9.45;4.28;;;;;;;-144.47;54.05;53386.44;4953859;28;20038;-91
2022/04/15 10:36:33;;;;;;;11.00;4.40;;;;;;;-144.47;54.70;53442.06;4987027;28;20162;-91
2022/04/15 10:39:26;;;;;;;8.63;4.55;;;;;;;-144.47;54.78;53362.59;4985943;28;20058;-90
2022/04/15 10:42:23;;;;;;;9.45;4.65;;;;;;;-144.47;54.78;53414.25;4958990;29;20802;-90
2022/04/15 10:44:59;;;;;;;11.68;4.15;;;;;;;-144.47;54.38;53434.09;4995593;28;20047;-92
2022/04/15 10:47:37;;;;;;;10.32;5.20;;;;;;;-144.47;54.16;53372.53;5008600;28;20140;-92
2022/04/15 10:50:33;;;;;;;11.00;5.00;;;;;;;-144.47;53.51;53410.28;4946081;28;20042;-90
2022/04/15 10:53:23;;;;;;;9.35;5.13;;;;;;;-144.47;53.06;53370.53;4984766;28;20441;-91
2022/04/15 10:55:56;;;;;;;9.93;4.60;;;;;;;-144.47;53.15;53380.47;5029588;28;20100;-89
2022/04/15 10:58:21;;;;;;;11.15;5.13;;;;;;;-144.47;52.86;53376.50;4996883;28;20034;-89
2022/04/15 11:01:19;;;;;;;11.68;5.22;;;;;;;-144.47;52.72;53332.81;4997851;28;20100;-89
2022/04/15 11:04:04;;;;;;;11.27;5.20;;;;;;;-144.47;52.79;53368.56;4990389;28;20038;-89
2022/04/15 11:06:32;;;;;;;10.50;5.20;;;;;;;-144.47;53.31;53354.66;5000225;28;20219;-88
2022/04/15 11:09:14;;;;;;;8.77;5.00;;;;;;;-144.47;54.14;53372.53;5013790;28;20109;-89
2022/04/15 11:11:45;;;;;;;11.30;5.28;;;;;;;-144.47;54.24;53396.38;5018761;28;20029;-88
2022/04/15 11:14:18;;;;;;;9.48;5.10;;;;;;;-144.47;54.47;53390.41;5010406;28;20041;-89
2022/04/15 11:16:59;;;;;;;10.50;5.68;;;;;;;-144.47;54.52;53370.53;5027950;28;20084;-90
2022/04/15 11:19:27;;;;;;;14.93;5.97;;;;;;;-144.47;54.93;53398.34;5049403;28;20125;-90
2022/04/15 11:21:55;;;;;;;13.93;6.43;;;;;;;-144.47;55.03;53416.22;5038271;28;20057;-88
2022/04/15 11:24:46;;;;;;;;;;;;;;;-144.47;55.17;53420.22;5053894;28;20049;-88
2022/04/15 11:27:33;;;;;;;14.73;6.43;;;;;;;-144.47;55.27;53358.63;5059792;28;19905;-87
2022/04/15 11:30:15;;;;;;;14.35;6.50;;;;;;;-144.47;54.62;53372.53;5060489;28;20067;-89
2022/04/15 11:32:54;;;;;;;13.20;6.82;;;;;;;-144.47;54.68;53394.38;5057657;28;20096;-90
2022/04/15 11:35:53;;;;;;;12.10;6.93;;;;;;;-144.47;55.03;53386.44;5077897;28;20033;-91
2022/04/15 11:38:49;;;;;;;10.60;6.50;;;;;;;-144.47;54.82;53376.50;5075282;28;20037;-90
2022/04/15 11:41:34;;;;;;;;;;;;;;;;;;;;;
2022/04/15 11:44:07;;;;;;;12.70;6.15;;;;;;;-144.47;54.99;53400.34;5073086;28;20044;-85
2022/04/15 11:46:35;;;;;;;11.43;6.53;;;;;;;-144.47;54.93;53354.66;5059601;28;20072;-81
2022/04/15 11:49:06;;;;;;;13.35;6.60;;;;;;;-144.47;55.21;53382.47;5070078;28;20009;-86
2022/04/15 11:51:37;;;;;;;13.38;6.97;;;;;;;-144.47;55.22;53382.47;5052631;28;20116;-86
2022/04/15 11:54:11;;;;;;;17.02;6.97;;;;;;;-144.47;55.13;53396.38;5050496;28;20036;-85
2022/04/15 11:56:44;;;;;;;15.20;6.63;;;;;;;-144.47;56.02;53372.53;5067153;28;20037;-85
2022/04/15 11:59:18;;;;;;;12.85;6.97;;;;;;;-144.47;56.21;53416.22;5043846;28;20041;-87
2022/04/15 12:02:06;;;;;;;;;;;;;;;;;;;;;
2022/04/15 12:04:47;;;;;;;16.13;7.57;;;;;;;-144.47;58.33;53404.31;5069165;28;20057;-88